sensor_id;sensor_type;location;lat;lon;timestamp;P1;durP1;ratioP1;P2;durP2;ratioP2
26191;SDS011;13935;55.672;37.764;2022-09-30T00:00:39;29.00;;;18.63;;
26191;SDS011;13935;55.672;37.764;2022-09-30T00:01:42;25.98;;;17.80;;
26191;SDS011;13935;55.672;37.764;2022-09-30T00:02:45;29.42;;;19.38;;
26191;SDS011;13935;55.672;37.764;2022-09-30T00:03:48;29.02;;;19.50;;
26191;SDS011;13935;55.672;37.764;2022-09-30T00:04:52;28.60;;;19.05;;
26191;SDS011;13935;55.672;37.764;2022-09-30T00:05:58;30.05;;;18.95;;
26191;SDS011;13935;55.672;37.764;2022-09-30T00:07:09;30.15;;;19.17;;
26191;SDS011;13935;55.672;37.764;2022-09-30T00:08:11;29.75;;;19.13;;
26191;SDS011;13935;55.672;37.764;2022-09-30T00:09:15;27.27;;;18.13;;
26191;SDS011;13935;55.672;37.764;2022-09-30T00:10:20;30.60;;;19.70;;
26191;SDS011;13935;55.672;37.764;2022-09-30T00:11:25;31.92;;;19.38;;
26191;SDS011;13935;55.672;37.764;2022-09-30T00:12:29;29.67;;;18.95;;
26191;SDS011;13935;55.672;37.764;2022-09-30T00:13:35;30.50;;;20.02;;
26191;SDS011;13935;55.672;37.764;2022-09-30T00:14:41;31.13;;;20.90;;
26191;SDS011;13935;55.672;37.764;2022-09-30T00:15:45;29.17;;;19.20;;
26191;SDS011;13935;55.672;37.764;2022-09-30T00:16:54;30.55;;;19.58;;
26191;SDS011;13935;55.672;37.764;2022-09-30T00:18:00;30.40;;;19.73;;
26191;SDS011;13935;55.672;37.764;2022-09-30T00:19:02;31.42;;;20.08;;
26191;SDS011;13935;55.672;37.764;2022-09-30T00:20:06;32.47;;;20.25;;
26191;SDS011;13935;55.672;37.764;2022-09-30T00:21:10;31.05;;;19.92;;
26191;SDS011;13935;55.672;37.764;2022-09-30T00:22:15;31.17;;;19.60;;
26191;SDS011;13935;55.672;37.764;2022-09-30T00:23:18;32.35;;;20.10;;
26191;SDS011;13935;55.672;37.764;2022-09-30T00:24:21;33.53;;;20.38;;
26191;SDS011;13935;55.672;37.764;2022-09-30T00:25:27;31.83;;;21.05;;
26191;SDS011;13935;55.672;37.764;2022-09-30T00:26:31;28.42;;;18.98;;
26191;SDS011;13935;55.672;37.764;2022-09-30T00:27:37;33.17;;;20.15;;
26191;SDS011;13935;55.672;37.764;2022-09-30T00:28:41;31.08;;;18.88;;
26191;SDS011;13935;55.672;37.764;2022-09-30T00:29:44;31.48;;;20.27;;
26191;SDS011;13935;55.672;37.764;2022-09-30T00:30:46;30.45;;;19.95;;
26191;SDS011;13935;55.672;37.764;2022-09-30T00:31:51;32.13;;;19.88;;
26191;SDS011;13935;55.672;37.764;2022-09-30T00:32:53;28.83;;;18.77;;
26191;SDS011;13935;55.672;37.764;2022-09-30T00:33:56;31.50;;;20.40;;
26191;SDS011;13935;55.672;37.764;2022-09-30T00:35:12;32.90;;;19.85;;
26191;SDS011;13935;55.672;37.764;2022-09-30T00:36:22;30.45;;;19.40;;
26191;SDS011;13935;55.672;37.764;2022-09-30T00:37:26;32.70;;;20.88;;
26191;SDS011;13935;55.672;37.764;2022-09-30T00:38:30;32.72;;;20.33;;
26191;SDS011;13935;55.672;37.764;2022-09-30T00:39:32;29.17;;;18.85;;
26191;SDS011;13935;55.672;37.764;2022-09-30T00:40:38;33.72;;;20.75;;
26191;SDS011;13935;55.672;37.764;2022-09-30T00:41:41;36.67;;;21.38;;
26191;SDS011;13935;55.672;37.764;2022-09-30T00:42:50;31.95;;;20.35;;
26191;SDS011;13935;55.672;37.764;2022-09-30T00:43:59;35.20;;;19.50;;
26191;SDS011;13935;55.672;37.764;2022-09-30T00:45:03;30.00;;;19.65;;
26191;SDS011;13935;55.672;37.764;2022-09-30T00:46:14;31.83;;;20.08;;
26191;SDS011;13935;55.672;37.764;2022-09-30T00:48:56;31.30;;;19.40;;
26191;SDS011;13935;55.672;37.764;2022-09-30T00:50:25;32.72;;;20.05;;
26191;SDS011;13935;55.672;37.764;2022-09-30T00:51:51;32.78;;;19.10;;
26191;SDS011;13935;55.672;37.764;2022-09-30T00:53:00;30.73;;;19.83;;
26191;SDS011;13935;55.672;37.764;2022-09-30T00:54:09;29.77;;;19.67;;
26191;SDS011;13935;55.672;37.764;2022-09-30T00:55:50;33.90;;;20.00;;
26191;SDS011;13935;55.672;37.764;2022-09-30T00:56:54;29.98;;;19.65;;
26191;SDS011;13935;55.672;37.764;2022-09-30T00:58:04;31.63;;;20.52;;
26191;SDS011;13935;55.672;37.764;2022-09-30T00:59:12;32.15;;;20.63;;
26191;SDS011;13935;55.672;37.764;2022-09-30T01:00:22;31.38;;;20.48;;
26191;SDS011;13935;55.672;37.764;2022-09-30T01:01:33;30.63;;;19.85;;
26191;SDS011;13935;55.672;37.764;2022-09-30T01:02:41;29.20;;;19.25;;
26191;SDS011;13935;55.672;37.764;2022-09-30T01:03:51;30.67;;;19.50;;
26191;SDS011;13935;55.672;37.764;2022-09-30T01:05:08;31.25;;;18.75;;
26191;SDS011;13935;55.672;37.764;2022-09-30T01:06:12;29.05;;;18.55;;
26191;SDS011;13935;55.672;37.764;2022-09-30T01:07:19;30.10;;;19.40;;
26191;SDS011;13935;55.672;37.764;2022-09-30T01:08:31;32.38;;;20.08;;
26191;SDS011;13935;55.672;37.764;2022-09-30T01:09:39;33.17;;;20.20;;
26191;SDS011;13935;55.672;37.764;2022-09-30T01:10:45;30.60;;;19.55;;
26191;SDS011;13935;55.672;37.764;2022-09-30T01:11:47;30.33;;;19.08;;
26191;SDS011;13935;55.672;37.764;2022-09-30T01:12:51;30.58;;;19.00;;
26191;SDS011;13935;55.672;37.764;2022-09-30T01:13:56;29.42;;;19.25;;
26191;SDS011;13935;55.672;37.764;2022-09-30T01:15:06;30.13;;;18.77;;
26191;SDS011;13935;55.672;37.764;2022-09-30T01:18:44;31.55;;;19.25;;
26191;SDS011;13935;55.672;37.764;2022-09-30T01:23:24;30.80;;;18.98;;
26191;SDS011;13935;55.672;37.764;2022-09-30T01:24:41;28.52;;;18.58;;
26191;SDS011;13935;55.672;37.764;2022-09-30T01:27:28;35.03;;;20.40;;
26191;SDS011;13935;55.672;37.764;2022-09-30T01:34:56;30.98;;;19.50;;
26191;SDS011;13935;55.672;37.764;2022-09-30T01:36:17;32.80;;;19.38;;
26191;SDS011;13935;55.672;37.764;2022-09-30T01:38:29;34.60;;;20.33;;
26191;SDS011;13935;55.672;37.764;2022-09-30T01:41:33;32.70;;;20.08;;
26191;SDS011;13935;55.672;37.764;2022-09-30T01:42:13;33.45;;;19.65;;
26191;SDS011;13935;55.672;37.764;2022-09-30T01:45:12;27.45;;;17.65;;
26191;SDS011;13935;55.672;37.764;2022-09-30T01:46:25;29.73;;;19.05;;
26191;SDS011;13935;55.672;37.764;2022-09-30T01:47:59;29.85;;;18.67;;
26191;SDS011;13935;55.672;37.764;2022-09-30T01:49:12;28.17;;;17.52;;
26191;SDS011;13935;55.672;37.764;2022-09-30T01:50:25;27.95;;;17.92;;
26191;SDS011;13935;55.672;37.764;2022-09-30T01:56:12;27.77;;;17.65;;
26191;SDS011;13935;55.672;37.764;2022-09-30T01:57:44;30.20;;;18.27;;
26191;SDS011;13935;55.672;37.764;2022-09-30T01:59:10;29.83;;;18.20;;
26191;SDS011;13935;55.672;37.764;2022-09-30T02:00:19;28.42;;;18.08;;
26191;SDS011;13935;55.672;37.764;2022-09-30T02:01:29;28.05;;;17.80;;
26191;SDS011;13935;55.672;37.764;2022-09-30T02:02:51;26.92;;;17.45;;
26191;SDS011;13935;55.672;37.764;2022-09-30T02:04:28;27.10;;;16.83;;
26191;SDS011;13935;55.672;37.764;2022-09-30T02:05:40;27.38;;;16.77;;
26191;SDS011;13935;55.672;37.764;2022-09-30T02:06:47;27.40;;;17.83;;
26191;SDS011;13935;55.672;37.764;2022-09-30T02:07:57;29.33;;;18.35;;
26191;SDS011;13935;55.672;37.764;2022-09-30T02:09:25;28.00;;;18.25;;
26191;SDS011;13935;55.672;37.764;2022-09-30T02:10:34;25.50;;;17.20;;
26191;SDS011;13935;55.672;37.764;2022-09-30T02:11:48;30.55;;;17.75;;
26191;SDS011;13935;55.672;37.764;2022-09-30T02:14:21;31.15;;;17.55;;
26191;SDS011;13935;55.672;37.764;2022-09-30T02:15:53;28.40;;;16.27;;
26191;SDS011;13935;55.672;37.764;2022-09-30T02:16:59;28.27;;;17.30;;
26191;SDS011;13935;55.672;37.764;2022-09-30T02:18:19;30.77;;;17.65;;
26191;SDS011;13935;55.672;37.764;2022-09-30T02:20:26;28.75;;;17.88;;
26191;SDS011;13935;55.672;37.764;2022-09-30T02:21:23;25.92;;;16.95;;
26191;SDS011;13935;55.672;37.764;2022-09-30T02:22:34;29.67;;;17.65;;
26191;SDS011;13935;55.672;37.764;2022-09-30T02:23:46;28.42;;;17.65;;
26191;SDS011;13935;55.672;37.764;2022-09-30T02:24:55;27.83;;;17.52;;
26191;SDS011;13935;55.672;37.764;2022-09-30T02:26:18;28.80;;;17.17;;
26191;SDS011;13935;55.672;37.764;2022-09-30T02:27:28;27.40;;;17.33;;
26191;SDS011;13935;55.672;37.764;2022-09-30T02:28:44;28.15;;;17.80;;
26191;SDS011;13935;55.672;37.764;2022-09-30T02:29:51;27.73;;;17.30;;
26191;SDS011;13935;55.672;37.764;2022-09-30T02:30:58;28.88;;;17.70;;
26191;SDS011;13935;55.672;37.764;2022-09-30T02:32:05;26.88;;;17.75;;
26191;SDS011;13935;55.672;37.764;2022-09-30T02:33:31;26.77;;;17.05;;
26191;SDS011;13935;55.672;37.764;2022-09-30T02:34:37;29.67;;;16.35;;
26191;SDS011;13935;55.672;37.764;2022-09-30T02:35:55;26.90;;;16.80;;
26191;SDS011;13935;55.672;37.764;2022-09-30T02:37:18;27.95;;;17.02;;
26191;SDS011;13935;55.672;37.764;2022-09-30T02:38:29;29.25;;;17.02;;
26191;SDS011;13935;55.672;37.764;2022-09-30T02:39:59;28.05;;;17.55;;
26191;SDS011;13935;55.672;37.764;2022-09-30T02:41:35;27.50;;;16.98;;
26191;SDS011;13935;55.672;37.764;2022-09-30T02:42:45;34.88;;;21.98;;
26191;SDS011;13935;55.672;37.764;2022-09-30T02:43:48;27.70;;;17.30;;
26191;SDS011;13935;55.672;37.764;2022-09-30T02:44:55;26.48;;;16.95;;
26191;SDS011;13935;55.672;37.764;2022-09-30T02:47:30;26.50;;;16.10;;
26191;SDS011;13935;55.672;37.764;2022-09-30T02:48:48;25.73;;;16.33;;
26191;SDS011;13935;55.672;37.764;2022-09-30T02:50:11;27.70;;;16.38;;
26191;SDS011;13935;55.672;37.764;2022-09-30T02:51:38;26.30;;;15.93;;
26191;SDS011;13935;55.672;37.764;2022-09-30T02:53:22;24.45;;;15.73;;
26191;SDS011;13935;55.672;37.764;2022-09-30T02:54:33;25.20;;;16.77;;
26191;SDS011;13935;55.672;37.764;2022-09-30T02:57:16;26.55;;;15.75;;
26191;SDS011;13935;55.672;37.764;2022-09-30T02:58:28;30.25;;;19.60;;
26191;SDS011;13935;55.672;37.764;2022-09-30T03:00:18;26.00;;;15.95;;
26191;SDS011;13935;55.672;37.764;2022-09-30T03:01:20;22.95;;;15.38;;
26191;SDS011;13935;55.672;37.764;2022-09-30T03:02:25;24.70;;;15.70;;
26191;SDS011;13935;55.672;37.764;2022-09-30T03:03:32;23.08;;;15.80;;
26191;SDS011;13935;55.672;37.764;2022-09-30T03:04:41;24.75;;;15.73;;
26191;SDS011;13935;55.672;37.764;2022-09-30T03:05:49;25.77;;;15.02;;
26191;SDS011;13935;55.672;37.764;2022-09-30T03:06:54;25.67;;;14.93;;
26191;SDS011;13935;55.672;37.764;2022-09-30T03:08:00;23.17;;;15.05;;
26191;SDS011;13935;55.672;37.764;2022-09-30T03:09:03;20.38;;;13.93;;
26191;SDS011;13935;55.672;37.764;2022-09-30T03:10:11;22.73;;;15.43;;
26191;SDS011;13935;55.672;37.764;2022-09-30T03:11:17;22.13;;;14.20;;
26191;SDS011;13935;55.672;37.764;2022-09-30T03:17:58;22.70;;;14.32;;
26191;SDS011;13935;55.672;37.764;2022-09-30T03:19:35;26.55;;;14.70;;
26191;SDS011;13935;55.672;37.764;2022-09-30T03:25:27;20.65;;;13.32;;
26191;SDS011;13935;55.672;37.764;2022-09-30T03:26:38;24.33;;;14.25;;
26191;SDS011;13935;55.672;37.764;2022-09-30T03:28:22;23.08;;;14.10;;
26191;SDS011;13935;55.672;37.764;2022-09-30T03:31:31;21.95;;;14.13;;
26191;SDS011;13935;55.672;37.764;2022-09-30T03:32:32;24.67;;;13.52;;
26191;SDS011;13935;55.672;37.764;2022-09-30T03:33:52;23.75;;;13.90;;
26191;SDS011;13935;55.672;37.764;2022-09-30T03:36:13;20.25;;;13.50;;
26191;SDS011;13935;55.672;37.764;2022-09-30T03:42:59;19.30;;;13.05;;
26191;SDS011;13935;55.672;37.764;2022-09-30T03:44:14;22.58;;;14.35;;
26191;SDS011;13935;55.672;37.764;2022-09-30T03:46:31;21.67;;;14.07;;
26191;SDS011;13935;55.672;37.764;2022-09-30T03:47:42;23.23;;;14.52;;
26191;SDS011;13935;55.672;37.764;2022-09-30T03:48:48;20.23;;;13.85;;
26191;SDS011;13935;55.672;37.764;2022-09-30T03:49:54;23.08;;;14.55;;
26191;SDS011;13935;55.672;37.764;2022-09-30T03:51:02;23.48;;;14.57;;
26191;SDS011;13935;55.672;37.764;2022-09-30T03:52:08;21.83;;;14.40;;
26191;SDS011;13935;55.672;37.764;2022-09-30T03:53:15;20.88;;;14.25;;
26191;SDS011;13935;55.672;37.764;2022-09-30T03:54:20;22.17;;;13.90;;
26191;SDS011;13935;55.672;37.764;2022-09-30T03:55:23;21.55;;;13.68;;
26191;SDS011;13935;55.672;37.764;2022-09-30T03:56:28;22.08;;;14.02;;
26191;SDS011;13935;55.672;37.764;2022-09-30T03:57:35;20.00;;;13.43;;
26191;SDS011;13935;55.672;37.764;2022-09-30T03:58:41;21.98;;;14.60;;
26191;SDS011;13935;55.672;37.764;2022-09-30T03:59:48;22.20;;;13.65;;
26191;SDS011;13935;55.672;37.764;2022-09-30T04:00:53;21.15;;;13.23;;
26191;SDS011;13935;55.672;37.764;2022-09-30T04:01:57;22.35;;;14.98;;
26191;SDS011;13935;55.672;37.764;2022-09-30T04:03:03;24.35;;;14.88;;
26191;SDS011;13935;55.672;37.764;2022-09-30T04:04:07;20.88;;;14.50;;
26191;SDS011;13935;55.672;37.764;2022-09-30T04:05:10;20.92;;;14.45;;
26191;SDS011;13935;55.672;37.764;2022-09-30T04:06:14;20.50;;;14.18;;
26191;SDS011;13935;55.672;37.764;2022-09-30T04:07:21;23.05;;;15.30;;
26191;SDS011;13935;55.672;37.764;2022-09-30T04:08:25;20.60;;;14.10;;
26191;SDS011;13935;55.672;37.764;2022-09-30T04:09:34;22.17;;;15.13;;
26191;SDS011;13935;55.672;37.764;2022-09-30T04:10:39;22.00;;;14.73;;
26191;SDS011;13935;55.672;37.764;2022-09-30T04:11:43;22.95;;;14.23;;
26191;SDS011;13935;55.672;37.764;2022-09-30T04:12:47;25.92;;;15.68;;
26191;SDS011;13935;55.672;37.764;2022-09-30T04:13:50;25.13;;;15.85;;
26191;SDS011;13935;55.672;37.764;2022-09-30T04:14:52;22.90;;;15.40;;
26191;SDS011;13935;55.672;37.764;2022-09-30T04:15:57;23.83;;;15.15;;
26191;SDS011;13935;55.672;37.764;2022-09-30T04:17:01;24.00;;;15.27;;
26191;SDS011;13935;55.672;37.764;2022-09-30T04:18:04;24.58;;;15.07;;
26191;SDS011;13935;55.672;37.764;2022-09-30T04:19:08;21.17;;;14.52;;
26191;SDS011;13935;55.672;37.764;2022-09-30T04:20:14;22.20;;;14.60;;
26191;SDS011;13935;55.672;37.764;2022-09-30T04:21:16;22.00;;;14.85;;
26191;SDS011;13935;55.672;37.764;2022-09-30T04:22:18;24.15;;;16.70;;
26191;SDS011;13935;55.672;37.764;2022-09-30T04:23:27;25.90;;;15.95;;
26191;SDS011;13935;55.672;37.764;2022-09-30T04:24:31;22.23;;;15.00;;
26191;SDS011;13935;55.672;37.764;2022-09-30T04:25:33;23.38;;;15.15;;
26191;SDS011;13935;55.672;37.764;2022-09-30T04:26:35;26.40;;;17.17;;
26191;SDS011;13935;55.672;37.764;2022-09-30T04:27:37;28.90;;;17.90;;
26191;SDS011;13935;55.672;37.764;2022-09-30T04:28:41;26.23;;;16.50;;
26191;SDS011;13935;55.672;37.764;2022-09-30T04:29:43;27.85;;;16.50;;
26191;SDS011;13935;55.672;37.764;2022-09-30T04:30:45;26.23;;;16.05;;
26191;SDS011;13935;55.672;37.764;2022-09-30T04:31:49;25.63;;;16.38;;
26191;SDS011;13935;55.672;37.764;2022-09-30T04:32:53;27.45;;;16.42;;
26191;SDS011;13935;55.672;37.764;2022-09-30T04:33:57;28.08;;;16.27;;
26191;SDS011;13935;55.672;37.764;2022-09-30T04:35:03;27.88;;;16.25;;
26191;SDS011;13935;55.672;37.764;2022-09-30T04:36:06;24.63;;;16.30;;
26191;SDS011;13935;55.672;37.764;2022-09-30T04:37:08;26.92;;;15.77;;
26191;SDS011;13935;55.672;37.764;2022-09-30T04:38:11;26.25;;;16.65;;
26191;SDS011;13935;55.672;37.764;2022-09-30T04:39:15;27.42;;;16.13;;
26191;SDS011;13935;55.672;37.764;2022-09-30T04:40:18;23.75;;;16.20;;
26191;SDS011;13935;55.672;37.764;2022-09-30T04:41:23;25.38;;;15.90;;
26191;SDS011;13935;55.672;37.764;2022-09-30T04:42:26;25.58;;;14.93;;
26191;SDS011;13935;55.672;37.764;2022-09-30T04:43:30;23.08;;;14.52;;
26191;SDS011;13935;55.672;37.764;2022-09-30T04:44:33;25.70;;;14.93;;
26191;SDS011;13935;55.672;37.764;2022-09-30T04:45:41;22.35;;;14.45;;
26191;SDS011;13935;55.672;37.764;2022-09-30T04:46:45;27.45;;;19.35;;
26191;SDS011;13935;55.672;37.764;2022-09-30T04:47:48;23.70;;;14.88;;
26191;SDS011;13935;55.672;37.764;2022-09-30T04:48:53;22.17;;;14.07;;
26191;SDS011;13935;55.672;37.764;2022-09-30T04:49:56;19.70;;;12.68;;
26191;SDS011;13935;55.672;37.764;2022-09-30T04:51:01;23.60;;;14.40;;
26191;SDS011;13935;55.672;37.764;2022-09-30T04:52:04;19.13;;;12.95;;
26191;SDS011;13935;55.672;37.764;2022-09-30T04:53:08;21.33;;;14.55;;
26191;SDS011;13935;55.672;37.764;2022-09-30T04:54:12;24.48;;;14.30;;
26191;SDS011;13935;55.672;37.764;2022-09-30T04:55:15;21.58;;;13.98;;
26191;SDS011;13935;55.672;37.764;2022-09-30T04:56:18;21.90;;;13.60;;
26191;SDS011;13935;55.672;37.764;2022-09-30T04:57:22;21.10;;;13.45;;
26191;SDS011;13935;55.672;37.764;2022-09-30T04:58:26;21.30;;;13.68;;
26191;SDS011;13935;55.672;37.764;2022-09-30T04:59:37;27.88;;;18.58;;
26191;SDS011;13935;55.672;37.764;2022-09-30T05:00:40;25.83;;;16.38;;
26191;SDS011;13935;55.672;37.764;2022-09-30T05:01:45;26.17;;;16.35;;
26191;SDS011;13935;55.672;37.764;2022-09-30T05:02:47;20.48;;;13.75;;
26191;SDS011;13935;55.672;37.764;2022-09-30T05:03:50;21.13;;;13.82;;
26191;SDS011;13935;55.672;37.764;2022-09-30T05:04:54;23.38;;;14.07;;
26191;SDS011;13935;55.672;37.764;2022-09-30T05:05:57;23.70;;;15.00;;
26191;SDS011;13935;55.672;37.764;2022-09-30T05:06:59;23.58;;;14.88;;
26191;SDS011;13935;55.672;37.764;2022-09-30T05:08:03;22.00;;;14.60;;
26191;SDS011;13935;55.672;37.764;2022-09-30T05:09:06;21.65;;;14.15;;
26191;SDS011;13935;55.672;37.764;2022-09-30T05:10:09;22.25;;;14.55;;
26191;SDS011;13935;55.672;37.764;2022-09-30T05:11:15;22.92;;;14.45;;
26191;SDS011;13935;55.672;37.764;2022-09-30T05:12:19;23.48;;;14.77;;
26191;SDS011;13935;55.672;37.764;2022-09-30T05:13:22;24.67;;;14.50;;
26191;SDS011;13935;55.672;37.764;2022-09-30T05:14:25;25.48;;;15.23;;
26191;SDS011;13935;55.672;37.764;2022-09-30T05:15:30;26.23;;;14.95;;
26191;SDS011;13935;55.672;37.764;2022-09-30T05:16:36;24.90;;;15.55;;
26191;SDS011;13935;55.672;37.764;2022-09-30T05:17:38;23.35;;;15.65;;
26191;SDS011;13935;55.672;37.764;2022-09-30T05:18:41;27.98;;;16.40;;
26191;SDS011;13935;55.672;37.764;2022-09-30T05:19:47;30.00;;;16.58;;
26191;SDS011;13935;55.672;37.764;2022-09-30T05:20:50;28.25;;;15.68;;
26191;SDS011;13935;55.672;37.764;2022-09-30T05:21:54;25.98;;;15.95;;
26191;SDS011;13935;55.672;37.764;2022-09-30T05:22:57;29.67;;;17.20;;
26191;SDS011;13935;55.672;37.764;2022-09-30T05:24:13;29.30;;;17.48;;
26191;SDS011;13935;55.672;37.764;2022-09-30T05:25:16;28.33;;;16.52;;
26191;SDS011;13935;55.672;37.764;2022-09-30T05:26:19;30.50;;;17.85;;
26191;SDS011;13935;55.672;37.764;2022-09-30T05:27:22;28.73;;;16.95;;
26191;SDS011;13935;55.672;37.764;2022-09-30T05:28:28;28.10;;;16.70;;
26191;SDS011;13935;55.672;37.764;2022-09-30T05:29:36;28.27;;;16.77;;
26191;SDS011;13935;55.672;37.764;2022-09-30T05:30:42;27.08;;;15.88;;
26191;SDS011;13935;55.672;37.764;2022-09-30T05:31:48;25.08;;;15.52;;
26191;SDS011;13935;55.672;37.764;2022-09-30T05:32:51;33.83;;;18.33;;
26191;SDS011;13935;55.672;37.764;2022-09-30T05:33:54;30.58;;;18.08;;
26191;SDS011;13935;55.672;37.764;2022-09-30T05:34:59;34.65;;;18.55;;
26191;SDS011;13935;55.672;37.764;2022-09-30T05:36:05;28.02;;;16.58;;
26191;SDS011;13935;55.672;37.764;2022-09-30T05:37:08;29.25;;;16.35;;
26191;SDS011;13935;55.672;37.764;2022-09-30T05:38:12;31.35;;;18.98;;
26191;SDS011;13935;55.672;37.764;2022-09-30T05:39:17;34.00;;;17.10;;
26191;SDS011;13935;55.672;37.764;2022-09-30T05:40:19;27.30;;;16.40;;
26191;SDS011;13935;55.672;37.764;2022-09-30T05:41:24;25.23;;;16.75;;
26191;SDS011;13935;55.672;37.764;2022-09-30T05:42:26;25.95;;;15.45;;
26191;SDS011;13935;55.672;37.764;2022-09-30T05:43:28;28.65;;;15.57;;
26191;SDS011;13935;55.672;37.764;2022-09-30T05:44:31;24.35;;;14.95;;
26191;SDS011;13935;55.672;37.764;2022-09-30T05:45:37;24.83;;;15.80;;
26191;SDS011;13935;55.672;37.764;2022-09-30T05:46:41;22.38;;;15.35;;
26191;SDS011;13935;55.672;37.764;2022-09-30T05:47:51;23.95;;;15.68;;
26191;SDS011;13935;55.672;37.764;2022-09-30T05:50:00;23.52;;;15.40;;
26191;SDS011;13935;55.672;37.764;2022-09-30T05:51:03;22.95;;;15.00;;
26191;SDS011;13935;55.672;37.764;2022-09-30T05:52:07;27.27;;;15.95;;
26191;SDS011;13935;55.672;37.764;2022-09-30T05:53:13;26.23;;;15.38;;
26191;SDS011;13935;55.672;37.764;2022-09-30T05:54:18;21.65;;;14.48;;
26191;SDS011;13935;55.672;37.764;2022-09-30T05:55:20;25.77;;;15.02;;
26191;SDS011;13935;55.672;37.764;2022-09-30T05:56:23;23.00;;;15.00;;
26191;SDS011;13935;55.672;37.764;2022-09-30T05:57:32;26.77;;;15.55;;
26191;SDS011;13935;55.672;37.764;2022-09-30T05:58:36;24.88;;;15.20;;
26191;SDS011;13935;55.672;37.764;2022-09-30T05:59:41;25.48;;;15.82;;
26191;SDS011;13935;55.672;37.764;2022-09-30T06:00:44;21.48;;;13.20;;
26191;SDS011;13935;55.672;37.764;2022-09-30T06:01:47;27.30;;;14.25;;
26191;SDS011;13935;55.672;37.764;2022-09-30T06:02:52;23.95;;;13.77;;
26191;SDS011;13935;55.672;37.764;2022-09-30T06:03:56;19.17;;;13.70;;
26191;SDS011;13935;55.672;37.764;2022-09-30T06:04:58;21.75;;;14.32;;
26191;SDS011;13935;55.672;37.764;2022-09-30T06:06:01;18.88;;;13.05;;
26191;SDS011;13935;55.672;37.764;2022-09-30T06:07:05;21.20;;;13.25;;
26191;SDS011;13935;55.672;37.764;2022-09-30T06:08:11;20.52;;;12.77;;
26191;SDS011;13935;55.672;37.764;2022-09-30T06:09:17;20.38;;;11.95;;
26191;SDS011;13935;55.672;37.764;2022-09-30T06:10:19;19.77;;;12.73;;
26191;SDS011;13935;55.672;37.764;2022-09-30T06:11:21;19.70;;;13.20;;
26191;SDS011;13935;55.672;37.764;2022-09-30T06:12:25;21.30;;;12.10;;
26191;SDS011;13935;55.672;37.764;2022-09-30T06:13:29;18.10;;;12.45;;
26191;SDS011;13935;55.672;37.764;2022-09-30T06:14:33;18.58;;;12.13;;
26191;SDS011;13935;55.672;37.764;2022-09-30T06:15:36;20.35;;;12.23;;
26191;SDS011;13935;55.672;37.764;2022-09-30T06:16:40;18.30;;;11.55;;
26191;SDS011;13935;55.672;37.764;2022-09-30T06:17:42;20.38;;;13.57;;
26191;SDS011;13935;55.672;37.764;2022-09-30T06:18:44;23.98;;;14.50;;
26191;SDS011;13935;55.672;37.764;2022-09-30T06:19:50;17.50;;;12.98;;
26191;SDS011;13935;55.672;37.764;2022-09-30T06:20:56;22.20;;;13.27;;
26191;SDS011;13935;55.672;37.764;2022-09-30T06:22:00;18.08;;;12.85;;
26191;SDS011;13935;55.672;37.764;2022-09-30T06:23:02;17.95;;;12.40;;
26191;SDS011;13935;55.672;37.764;2022-09-30T06:24:05;18.60;;;12.63;;
26191;SDS011;13935;55.672;37.764;2022-09-30T06:25:12;18.58;;;12.05;;
26191;SDS011;13935;55.672;37.764;2022-09-30T06:26:15;17.08;;;11.98;;
26191;SDS011;13935;55.672;37.764;2022-09-30T06:27:22;18.50;;;12.15;;
26191;SDS011;13935;55.672;37.764;2022-09-30T06:28:24;17.02;;;12.32;;
26191;SDS011;13935;55.672;37.764;2022-09-30T06:29:27;15.70;;;11.82;;
26191;SDS011;13935;55.672;37.764;2022-09-30T06:30:30;18.95;;;12.10;;
26191;SDS011;13935;55.672;37.764;2022-09-30T06:31:37;18.92;;;12.20;;
26191;SDS011;13935;55.672;37.764;2022-09-30T06:32:40;20.10;;;12.25;;
26191;SDS011;13935;55.672;37.764;2022-09-30T06:33:46;15.30;;;11.35;;
26191;SDS011;13935;55.672;37.764;2022-09-30T06:34:54;17.23;;;11.75;;
26191;SDS011;13935;55.672;37.764;2022-09-30T06:35:59;17.33;;;12.55;;
26191;SDS011;13935;55.672;37.764;2022-09-30T06:37:05;17.83;;;11.77;;
26191;SDS011;13935;55.672;37.764;2022-09-30T06:38:08;17.63;;;11.30;;
26191;SDS011;13935;55.672;37.764;2022-09-30T06:39:12;16.27;;;11.88;;
26191;SDS011;13935;55.672;37.764;2022-09-30T06:40:15;19.45;;;11.50;;
26191;SDS011;13935;55.672;37.764;2022-09-30T06:41:17;15.65;;;11.65;;
26191;SDS011;13935;55.672;37.764;2022-09-30T06:42:20;18.27;;;11.73;;
26191;SDS011;13935;55.672;37.764;2022-09-30T06:43:26;26.90;;;17.98;;
26191;SDS011;13935;55.672;37.764;2022-09-30T06:44:31;27.20;;;17.38;;
26191;SDS011;13935;55.672;37.764;2022-09-30T06:45:50;18.98;;;13.20;;
26191;SDS011;13935;55.672;37.764;2022-09-30T06:46:54;18.73;;;12.35;;
26191;SDS011;13935;55.672;37.764;2022-09-30T06:47:58;18.00;;;11.55;;
26191;SDS011;13935;55.672;37.764;2022-09-30T06:49:04;19.13;;;12.52;;
26191;SDS011;13935;55.672;37.764;2022-09-30T06:50:25;15.75;;;11.98;;
26191;SDS011;13935;55.672;37.764;2022-09-30T06:51:28;19.63;;;13.32;;
26191;SDS011;13935;55.672;37.764;2022-09-30T06:52:34;19.00;;;12.35;;
26191;SDS011;13935;55.672;37.764;2022-09-30T06:53:41;19.83;;;13.20;;
26191;SDS011;13935;55.672;37.764;2022-09-30T06:54:45;22.55;;;13.88;;
26191;SDS011;13935;55.672;37.764;2022-09-30T06:55:53;17.55;;;12.82;;
26191;SDS011;13935;55.672;37.764;2022-09-30T06:56:56;19.38;;;13.80;;
26191;SDS011;13935;55.672;37.764;2022-09-30T06:58:00;20.80;;;15.43;;
26191;SDS011;13935;55.672;37.764;2022-09-30T06:59:04;23.50;;;14.25;;
26191;SDS011;13935;55.672;37.764;2022-09-30T07:00:08;21.10;;;13.63;;
26191;SDS011;13935;55.672;37.764;2022-09-30T07:01:11;19.08;;;12.52;;
26191;SDS011;13935;55.672;37.764;2022-09-30T07:02:19;19.92;;;13.15;;
26191;SDS011;13935;55.672;37.764;2022-09-30T07:03:24;24.10;;;13.77;;
26191;SDS011;13935;55.672;37.764;2022-09-30T07:04:29;22.42;;;12.65;;
26191;SDS011;13935;55.672;37.764;2022-09-30T07:05:32;21.48;;;12.63;;
26191;SDS011;13935;55.672;37.764;2022-09-30T07:06:35;18.67;;;13.13;;
26191;SDS011;13935;55.672;37.764;2022-09-30T07:07:40;17.70;;;12.82;;
26191;SDS011;13935;55.672;37.764;2022-09-30T07:08:42;20.98;;;13.02;;
26191;SDS011;13935;55.672;37.764;2022-09-30T07:09:45;19.33;;;13.00;;
26191;SDS011;13935;55.672;37.764;2022-09-30T07:10:48;22.30;;;13.32;;
26191;SDS011;13935;55.672;37.764;2022-09-30T07:11:51;20.40;;;13.57;;
26191;SDS011;13935;55.672;37.764;2022-09-30T07:12:54;22.40;;;13.10;;
26191;SDS011;13935;55.672;37.764;2022-09-30T07:13:57;19.20;;;14.07;;
26191;SDS011;13935;55.672;37.764;2022-09-30T07:14:59;19.17;;;13.43;;
26191;SDS011;13935;55.672;37.764;2022-09-30T07:16:04;19.35;;;13.38;;
26191;SDS011;13935;55.672;37.764;2022-09-30T07:17:07;20.88;;;13.73;;
26191;SDS011;13935;55.672;37.764;2022-09-30T07:18:09;18.88;;;13.45;;
26191;SDS011;13935;55.672;37.764;2022-09-30T07:19:13;20.45;;;13.70;;